Time;durP1;ratioP1;P1;durP2;ratioP2;P2;SDS_P1;SDS_P2;PMS_P1;PMS_P2;Temp;Humidity;BMP_temperature;BMP_pressure;BME280_temperature;BME280_humidity;BME280_pressure;Samples;Min_cycle;Max_cycle;Signal;HPM_P1;HPM_P2
2023/02/22 06:11:36;;;;;;;;;69.25;53.25;;;;;8.77;100.00;100943.00;4956773;23;50284;-68
2023/02/22 06:14:01;;;;;;;;;54.00;44.00;;;;;9.40;100.00;101043.59;4911106;28;49756;-68
2023/02/22 06:16:27;;;;;;;;;71.25;55.25;;;;;9.16;100.00;100996.59;4916276;28;50790;-68
2023/02/22 06:18:52;;;;;;;;;64.25;49.75;;;;;8.78;100.00;100937.84;4917252;28;49786;-68
2023/02/22 06:21:18;;;;;;;;;53.00;45.25;;;;;9.50;100.00;101063.13;4920664;28;50047;-69
2023/02/22 06:23:43;;;;;;;;;62.25;48.25;;;;;9.31;100.00;101029.34;4914964;28;49792;-68
2023/02/22 06:26:08;;;;;;;;;56.75;46.50;;;;;8.99;100.00;101000.44;4919028;28;50369;-69
2023/02/22 06:28:34;;;;;;;;;56.00;45.25;;;;;8.75;100.00;100921.13;4926312;28;49281;-69
2023/02/22 06:30:59;;;;;;;;;57.75;44.25;;;;;9.60;100.00;101070.41;4917884;28;49968;-68
2023/02/22 06:33:24;;;;;;;;;55.00;46.50;;;;;9.63;100.00;101077.47;4915970;28;49839;-69
2023/02/22 06:35:50;;;;;;;;;51.25;42.75;;;;;9.35;100.00;101018.09;4916159;28;50501;-69
2023/02/22 06:38:23;;;;;;;;;47.75;42.50;;;;;9.36;100.00;101040.81;4915419;28;49962;-67
2023/02/22 06:40:49;;;;;;;;;58.50;48.00;;;;;9.55;100.00;101050.13;4916504;28;49758;-67
2023/02/22 06:43:14;;;;;;;;;56.75;47.00;;;;;9.23;100.00;100989.81;4912912;28;50097;-70
2023/02/22 06:45:40;;;;;;;;;49.25;42.00;;;;;9.17;100.00;100971.31;4916016;28;49912;-69
2023/02/22 06:48:05;;;;;;;;;57.75;47.00;;;;;9.75;100.00;101077.84;4932236;28;49931;-69
2023/02/22 06:50:31;;;;;;;;;50.00;43.75;;;;;9.31;100.00;101000.53;4929333;28;49748;-70
2023/02/22 06:52:57;;;;;;;;;56.75;46.25;;;;;9.76;100.00;101071.75;4933553;28;49996;-68
2023/02/22 06:55:25;;;;;;;;;55.50;47.00;;;;;9.57;100.00;101036.25;4930837;28;49652;-68
2023/02/22 06:57:51;;;;;;;;;57.25;48.00;;;;;9.74;100.00;101079.53;4931703;28;49792;-69
2023/02/22 07:00:19;;;;;;;;;57.50;47.75;;;;;9.49;100.00;101036.88;4931210;28;49928;-68
2023/02/22 07:02:47;;;;;;;;;55.25;44.25;;;;;9.43;100.00;101030.59;4918302;28;49953;-68
2023/02/22 07:05:15;;;;;;;;;46.25;41.25;;;;;9.72;100.00;101083.88;4927290;28;49975;-72
2023/02/22 07:07:41;;;;;;;;;60.25;48.25;;;;;9.43;100.00;101041.06;4913055;28;49740;-76
2023/02/22 07:10:14;;;;;;;;;58.75;49.00;;;;;9.28;100.00;101009.19;4912990;28;49867;-70
2023/02/22 07:12:40;;;;;;;;;54.25;43.50;;;;;9.56;100.00;101062.41;4913314;28;49720;-71
2023/02/22 07:15:05;;;;;;;;;54.50;45.00;;;;;9.10;100.00;100974.59;4922726;28;50885;-69
2023/02/22 07:17:31;;;;;;;;;58.75;47.75;;;;;9.59;100.00;101058.16;4913216;28;49735;-70
2023/02/22 07:19:56;;;;;;;;;46.75;40.25;;;;;9.54;100.00;101048.34;4916763;28;49790;-70
2023/02/22 07:22:21;;;;;;;;;54.50;45.75;;;;;9.86;100.00;101112.22;4921451;28;49719;-71
2023/02/22 07:24:47;;;;;;;;;41.75;36.50;;;;;9.73;100.00;101090.00;4919725;28;49862;-70
2023/02/22 07:27:13;;;;;;;;;58.75;50.00;;;;;9.74;100.00;101097.91;4917685;28;49721;-70
2023/02/22 07:29:41;;;;;;;;;50.75;43.00;;;;;9.51;100.00;101056.13;4919555;28;49654;-71
2023/02/22 07:32:06;;;;;;;;;60.25;47.75;;;;;9.65;100.00;101094.13;4912909;28;50054;-70
2023/02/22 07:34:32;;;;;;;;;66.75;49.75;;;;;9.56;100.00;101089.50;4918952;28;49810;-70
2023/02/22 07:36:57;;;;;;;;;58.25;47.25;;;;;9.51;100.00;101059.66;4917927;28;49850;-67
2023/02/22 07:39:22;;;;;;;;;56.00;46.25;;;;;9.64;100.00;101066.13;4915384;28;49875;-68
2023/02/22 07:41:48;;;;;;;;;59.50;50.50;;;;;9.86;100.00;101104.38;4912685;28;50453;-66
2023/02/22 07:44:14;;;;;;;;;55.75;46.75;;;;;9.89;100.00;101110.56;4916798;28;50874;-67
2023/02/22 07:46:39;;;;;;;;;60.75;48.50;;;;;9.80;100.00;101094.56;4914308;28;49895;-72
2023/02/22 07:49:05;;;;;;;;;39.50;36.00;;;;;9.72;100.00;101091.72;4902114;28;49266;-68
2023/02/22 07:51:30;;;;;;;;;59.00;48.50;;;;;9.73;100.00;101087.38;4919645;28;50314;-69
2023/02/22 07:53:56;;;;;;;;;62.75;50.25;;;;;9.69;100.00;101070.69;4923159;28;50457;-68
2023/02/22 07:56:24;;;;;;;;;58.00;48.50;;;;;10.11;100.00;101134.78;4923555;28;49767;-68
2023/02/22 07:58:50;;;;;;;;;60.50;48.00;;;;;9.84;100.00;101091.19;4922309;28;49819;-68
2023/02/22 08:01:15;;;;;;;;;56.25;47.25;;;;;9.88;100.00;101081.69;4919145;28;49967;-70
2023/02/22 08:03:41;;;;;;;;;61.00;49.50;;;;;10.21;100.00;101135.09;4923762;28;49826;-67
2023/02/22 08:06:07;;;;;;;;;65.75;47.75;;;;;10.03;100.00;101092.59;4920310;28;49960;-69
2023/02/22 08:08:33;;;;;;;;;60.25;48.00;;;;;10.11;100.00;101106.81;4920036;28;49870;-70
2023/02/22 08:10:59;;;;;;;;;59.25;48.25;;;;;10.31;100.00;101155.53;4927535;28;50347;-68
2023/02/22 08:13:24;;;;;;;;;63.50;51.25;;;;;10.27;100.00;101131.81;4910350;28;50615;-69
2023/02/22 08:15:52;;;;;;;;;54.75;46.75;;;;;10.39;100.00;101150.50;4897902;28;49832;-66
2023/02/22 08:18:19;;;;;;;;;58.50;48.00;;;;;10.40;100.00;101144.41;4919312;28;49770;-68
2023/02/22 08:20:47;;;;;;;;;66.50;50.00;;;;;9.71;100.00;101028.75;4924563;28;49755;-68
2023/02/22 08:23:13;;;;;;;;;60.25;50.00;;;;;10.44;100.00;101164.66;4909841;28;49842;-66
2023/02/22 08:25:39;;;;;;;;;60.00;45.75;;;;;9.66;100.00;101014.66;4916457;28;49799;-67
2023/02/22 08:28:09;;;;;;;;;66.00;54.75;;;;;10.17;100.00;101111.38;4922214;28;50571;-69
2023/02/22 08:30:36;;;;;;;;;59.25;46.00;;;;;10.27;100.00;101127.44;4923439;28;50158;-68
2023/02/22 08:33:03;;;;;;;;;64.00;50.50;;;;;9.88;100.00;101061.59;4918018;28;49837;-68
2023/02/22 08:35:31;;;;;;;;;65.50;53.50;;;;;9.83;100.00;101052.69;4921005;28;49736;-68
2023/02/22 08:38:00;;;;;;;;;61.00;51.00;;;;;10.51;100.00;101160.44;4909617;28;50001;-66
2023/02/22 08:40:29;;;;;;;;;65.50;53.50;;;;;10.36;100.00;101125.91;4916828;28;49712;-67
2023/02/22 08:42:55;;;;;;;;;64.00;50.50;;;;;10.44;100.00;101124.41;4916015;28;49902;-66
2023/02/22 08:45:21;;;;;;;;;61.75;52.00;;;;;10.43;100.00;101120.00;4921753;28;49795;-70
2023/02/22 08:47:46;;;;;;;;;66.00;50.25;;;;;10.20;100.00;101086.09;4926374;28;50066;-73
2023/02/22 08:50:27;;;;;;;;;60.00;50.75;;;;;10.53;100.00;101141.28;4923450;28;50335;-76
2023/02/22 08:52:55;;;;;;;;;62.75;51.50;;;;;10.70;100.00;101172.34;4924197;28;51029;-74
2023/02/22 08:55:23;;;;;;;;;62.50;49.75;;;;;10.49;100.00;101138.53;4915070;28;49927;-73
2023/02/22 08:57:49;;;;;;;;;64.00;51.50;;;;;10.70;100.00;101177.59;4923913;28;50038;-73
2023/02/22 09:00:16;;;;;;;;;64.25;50.25;;;;;10.22;100.00;101092.31;4934298;28;49917;-73
2023/02/22 09:02:41;;;;;;;;;65.75;54.00;;;;;10.42;100.00;101113.88;4928819;28;49912;-73
2023/02/22 09:05:07;;;;;;;;;66.50;53.25;;;;;10.71;100.00;101155.72;4920866;28;49858;-74
2023/02/22 09:07:32;;;;;;;;;69.25;54.25;;;;;10.88;100.00;101194.72;4915522;28;49783;-73
2023/02/22 09:09:58;;;;;;;;;64.00;51.25;;;;;10.44;100.00;101108.66;4927905;28;49723;-72
2023/02/22 09:12:23;;;;;;;;;65.25;53.25;;;;;10.49;100.00;101092.16;4932542;28;49734;-73
2023/02/22 09:14:49;;;;;;;;;69.00;54.75;;;;;10.92;100.00;101168.56;4933595;28;49897;-73
2023/02/22 09:17:14;;;;;;;;;68.75;55.00;;;;;10.83;100.00;101132.44;4916184;28;49789;-70
2023/02/22 09:19:39;;;;;;;;;65.75;53.00;;;;;10.80;100.00;101127.97;4932460;28;49739;-70
2023/02/22 09:22:05;;;;;;;;;66.00;52.75;;;;;10.48;100.00;101084.25;4933485;28;49828;-69
2023/02/22 09:24:30;;;;;;;;;61.00;51.25;;;;;10.29;100.00;101033.91;4933981;28;49953;-68
2023/02/22 09:26:58;;;;;;;;;61.00;50.25;;;;;10.48;100.00;101071.13;4931505;28;49895;-69
2023/02/22 09:29:26;;;;;;;;;64.50;52.00;;;;;10.82;100.00;101149.94;4927770;28;49795;-69
2023/02/22 09:31:53;;;;;;;;;62.75;50.75;;;;;10.76;100.00;101127.88;4922157;28;52694;-69
2023/02/22 09:34:21;;;;;;;;;64.25;51.75;;;;;11.05;100.00;101168.00;4930614;28;49985;-69
2023/02/22 09:36:48;;;;;;;;;67.50;54.75;;;;;11.13;100.00;101175.22;4921007;28;49709;-69
2023/02/22 09:39:17;;;;;;;;;61.50;51.50;;;;;10.98;100.00;101159.06;4907450;28;49764;-70
2023/02/22 09:41:54;;;;;;;;;67.00;54.00;;;;;11.02;100.00;101165.31;4924580;28;50023;-72
2023/02/22 09:44:42;;;;;;;;;66.00;50.25;;;;;11.17;100.00;101166.56;4932313;28;49822;-69
2023/02/22 09:47:16;;;;;;;;;61.00;51.00;;;;;11.17;100.00;101176.19;4899346;28;49748;-69
2023/02/22 09:50:04;;;;;;;;;60.00;49.00;;;;;11.14;100.00;101158.63;4927133;28;49930;-69
2023/02/22 09:52:35;;;;;;;;;63.25;52.00;;;;;11.14;100.00;101174.38;4924121;28;49971;-71
2023/02/22 09:55:06;;;;;;;;;67.00;53.00;;;;;11.21;100.00;101164.91;4933210;28;49775;-70
2023/02/22 09:57:42;;;;;;;;;66.25;51.50;;;;;11.17;100.00;101160.44;4929597;28;50001;-69
2023/02/22 10:00:13;;;;;;;;;62.75;48.75;;;;;11.27;100.00;101170.31;4921689;28;49849;-69
2023/02/22 10:02:51;;;;;;;;;57.25;47.50;;;;;11.27;100.00;101178.19;4908658;28;50662;-69
2023/02/22 10:05:19;;;;;;;;;61.50;50.75;;;;;11.30;100.00;101169.53;4914848;28;49783;-67
2023/02/22 10:08:17;;;;;;;;;65.25;52.25;;;;;11.34;100.00;101168.72;4914598;28;49870;-69
2023/02/22 10:10:45;;;;;;;;;66.00;52.50;;;;;11.38;100.00;101166.19;4914050;28;50013;-71
2023/02/22 10:13:12;;;;;;;;;67.25;53.75;;;;;11.43;100.00;101161.06;4914317;28;49766;-69
2023/02/22 10:15:44;;;;;;;;;68.00;56.25;;;;;11.44;100.00;101162.84;4919644;28;49771;-70
2023/02/22 10:18:22;;;;;;;;;66.00;53.25;;;;;11.25;100.00;101139.59;4928497;28;49911;-70
2023/02/22 10:21:32;;;;;;;;;64.50;52.75;;;;;11.48;100.00;101167.28;4915976;28;49788;-69
2023/02/22 10:23:57;;;;;;;;;60.25;51.00;;;;;11.54;100.00;101167.47;4914637;28;49901;-69
2023/02/22 10:26:29;;;;;;;;;68.25;53.75;;;;;11.35;100.00;101137.22;4932718;28;49739;-70
2023/02/22 10:29:09;;;;;;;;;63.00;51.25;;;;;11.28;100.00;101116.00;4908384;28;49715;-68
2023/02/22 10:31:41;;;;;;;;;65.75;52.00;;;;;11.22;100.00;101108.00;4909850;28;49986;-68
2023/02/22 10:34:15;;;;;;;;;63.75;52.50;;;;;11.20;100.00;101118.47;4914250;28;49806;-67
2023/02/22 10:36:47;;;;;;;;;48.75;39.75;;;;;11.16;100.00;101109.59;4914383;28;50065;-67
2023/02/22 10:39:12;;;;;;;;;63.00;50.00;;;;;11.53;100.00;101167.41;4914145;28;49811;-68
2023/02/22 10:41:44;;;;;;;;;72.50;53.75;;;;;11.42;100.00;101162.81;4914314;28;49804;-68
2023/02/22 10:44:09;;;;;;;;;63.00;53.00;;;;;11.38;100.00;101163.56;4913871;28;50941;-67
2023/02/22 10:46:36;;;;;;;;;64.75;52.00;;;;;11.32;100.00;101154.66;4913870;28;49756;-67
2023/02/22 10:49:06;;;;;;;;;64.00;51.75;;;;;11.34;100.00;101160.84;4913858;28;49685;-67
2023/02/22 10:51:32;;;;;;;;;66.50;52.25;;;;;10.55;100.00;101041.56;4913145;28;49678;-68
2023/02/22 10:54:22;;;;;;;;;66.00;52.00;;;;;11.39;100.00;101198.66;4926990;28;50832;-68
2023/02/22 10:56:51;;;;;;;;;67.50;54.50;;;;;11.39;100.00;101191.66;4931153;28;49792;-67
2023/02/22 10:59:38;;;;;;;;;68.25;55.00;;;;;11.29;100.00;101184.41;4931382;28;49831;-67
2023/02/22 11:02:23;;;;;;;;;67.50;53.25;;;;;11.22;100.00;101168.44;4931148;28;49858;-68
2023/02/22 11:04:53;;;;;;;;;60.75;51.00;;;;;11.36;100.00;101193.31;4931366;28;50753;-68
2023/02/22 11:07:20;;;;;;;;;65.25;51.75;;;;;11.38;100.00;101189.84;4931610;28;49719;-67
2023/02/22 11:09:50;;;;;;;;;70.25;53.25;;;;;11.14;100.00;101153.34;4921481;28;49654;-69
2023/02/22 11:12:25;;;;;;;;;65.25;53.00;;;;;10.81;100.00;101108.75;4913615;28;49917;-68
2023/02/22 11:14:50;;;;;;;;;70.50;52.00;;;;;10.87;100.00;101119.41;4913068;28;49728;-68
2023/02/22 11:17:23;;;;;;;;;65.00;51.75;;;;;11.23;100.00;101167.59;4917779;28;49701;-67
2023/02/22 11:19:49;;;;;;;;;69.00;55.75;;;;;10.96;100.00;101117.88;4914236;28;49930;-67
2023/02/22 11:22:23;;;;;;;;;66.00;54.50;;;;;11.38;100.00;101200.38;4928545;28;49921;-67
2023/02/22 11:24:54;;;;;;;;;63.00;52.00;;;;;11.19;100.00;101161.34;4930747;28;50027;-67
2023/02/22 11:27:27;;;;;;;;;70.75;55.00;;;;;11.37;100.00;101192.44;4915223;28;49900;-67
2023/02/22 11:29:53;;;;;;;;;65.50;50.75;;;;;11.25;100.00;101168.50;4908109;28;49721;-67
2023/02/22 11:32:21;;;;;;;;;70.50;54.25;;;;;11.21;100.00;101172.81;4913374;28;49896;-67
2023/02/22 11:34:52;;;;;;;;;61.25;51.25;;;;;11.04;100.00;101153.97;4895959;28;52434;-67
2023/02/22 11:37:29;;;;;;;;;62.50;52.25;;;;;11.11;100.00;101161.19;4913318;28;49693;-68
2023/02/22 11:40:21;;;;;;;;;62.50;52.25;;;;;11.27;100.00;101183.44;4921174;28;49914;-68
2023/02/22 11:42:49;;;;;;;;;65.50;53.75;;;;;10.97;100.00;101141.53;4908410;28;49974;-69
2023/02/22 11:45:22;;;;;;;;;71.25;57.00;;;;;10.80;100.00;101098.19;4931519;28;50853;-67
2023/02/22 11:47:54;;;;;;;;;67.25;52.25;;;;;10.60;100.00;101063.56;4931006;28;49850;-69
2023/02/22 11:50:23;;;;;;;;;68.00;52.00;;;;;11.22;100.00;101171.06;4931725;28;49884;-68
2023/02/22 11:53:03;;;;;;;;;65.75;53.75;;;;;10.60;100.00;101045.19;4931681;28;49717;-68
2023/02/22 11:56:06;;;;;;;;;67.50;55.75;;;;;11.34;100.00;101169.63;4931415;28;50073;-68
2023/02/22 11:58:41;;;;;;;;;67.50;53.00;;;;;11.34;100.00;101174.88;4929978;28;49184;-67
2023/02/22 12:01:16;;;;;;;;;67.75;52.00;;;;;11.09;100.00;101136.56;4913609;28;50042;-68
2023/02/22 12:04:14;;;;;;;;;60.50;51.25;;;;;11.09;100.00;101099.78;4916503;28;49840;-69
2023/02/22 12:06:55;;;;;;;;;63.25;50.00;;;;;11.53;100.00;101128.88;4934511;28;51138;-68
2023/02/22 12:09:31;;;;;;;;;60.50;49.25;;;;;11.41;100.00;101073.41;4934829;28;49779;-68
2023/02/22 12:12:09;;;;;;;;;65.50;52.50;;;;;11.74;100.00;101105.66;4934585;28;49993;-68
2023/02/22 12:15:03;;;;;;;;;49.75;43.00;;;;;12.18;100.00;101142.59;4928172;28;49613;-69
2023/02/22 12:17:33;;;;;;;;;61.50;50.25;;;;;12.30;100.00;101145.47;4916742;28;50945;-68
2023/02/22 12:20:20;;;;;;;;;55.25;47.00;;;;;11.40;100.00;100962.09;4934589;28;49669;-68
2023/02/22 12:23:11;;;;;;;;;55.50;46.00;;;;;12.49;100.00;101140.56;4911506;28;49780;-68
2023/02/22 12:25:56;;;;;;;;;52.50;44.50;;;;;11.99;100.00;101028.19;4916260;28;49752;-68
2023/02/22 12:28:28;;;;;;;;;53.00;44.25;;;;;12.52;100.00;101120.41;4915800;28;50967;-68
2023/02/22 12:31:13;;;;;;;;;61.50;49.00;;;;;12.65;100.00;101128.56;4916030;28;49722;-68
2023/02/22 12:33:50;;;;;;;;;50.50;43.00;;;;;12.31;100.00;101041.06;4915716;28;49644;-68
2023/02/22 12:36:20;;;;;;;;;51.25;43.25;;;;;12.59;100.00;101074.03;4916163;28;49965;-68
2023/02/22 12:38:53;;;;;;;;;56.25;45.00;;;;;12.75;100.00;101088.34;4915537;28;50913;-68
2023/02/22 12:41:31;;;;;;;;;51.50;43.50;;;;;13.03;100.00;101126.59;4916079;28;49867;-68
2023/02/22 12:44:02;;;;;;;;;52.25;42.75;;;;;13.07;100.00;101121.41;4916144;28;49768;-67
2023/02/22 12:46:48;;;;;;;;;51.25;41.75;;;;;12.89;100.00;101092.97;4929429;28;49740;-70
2023/02/22 12:49:34;;;;;;;;;51.25;44.50;;;;;13.21;100.00;101119.00;4934040;28;50821;-68
2023/02/22 12:52:22;;;;;;;;;51.50;42.75;;;;;13.30;100.00;101121.78;4934223;28;49699;-68
2023/02/22 12:54:57;;;;;;;;;55.00;42.50;;;;;13.15;100.00;101097.81;4934102;28;49893;-69
2023/02/22 12:57:27;;;;;;;;;48.50;42.50;;;;;13.27;100.00;101116.47;4934265;28;50017;-67
2023/02/22 12:59:58;;;;;;;;;56.50;43.25;;;;;13.25;100.00;101117.31;4934010;28;50860;-68
2023/02/22 13:02:34;;;;;;;;;53.75;41.50;;;;;13.26;100.00;101130.53;4933724;28;49890;-68
2023/02/22 13:05:01;;;;;;;;;56.75;46.75;;;;;13.11;100.00;101094.22;4931095;28;49965;-68
2023/02/22 13:07:50;;;;;;;;;55.75;45.00;;;;;13.25;100.00;101115.56;4933928;28;49991;-68
2023/02/22 13:10:19;;;;;;;;;48.00;40.75;;;;;13.21;100.00;101119.00;4933586;28;49851;-68
2023/02/22 13:13:10;;;;;;;;;50.75;43.00;;;;;13.17;100.00;101117.16;4933713;28;49874;-69
2023/02/22 13:15:57;;;;;;;;;56.00;42.50;;;;;13.00;100.00;101110.72;4933098;28;49738;-68
2023/02/22 13:18:34;;;;;;;;;43.25;40.00;;;;;12.61;100.00;101049.47;4932641;28;49946;-68
2023/02/22 13:21:18;;;;;;;;;54.50;44.00;;;;;12.88;100.00;101119.31;4910470;28;51194;-69
2023/02/22 13:24:11;;;;;;;;;48.25;39.75;;;;;12.68;100.00;101081.19;4915369;28;49871;-68
2023/02/22 13:26:49;;;;;;;;;54.50;43.25;;;;;12.81;100.00;101102.50;4909706;28;49943;-68
2023/02/22 13:29:30;;;;;;;;;52.00;42.25;;;;;12.90;100.00;101109.69;4915501;28;49999;-68
2023/02/22 13:32:11;;;;;;;;;54.50;43.00;;;;;12.85;100.00;101116.63;4914566;28;51158;-68
2023/02/22 13:35:01;;;;;;;;;47.00;40.25;;;;;12.78;100.00;101109.47;4926075;28;49842;-68
2023/02/22 13:37:39;;;;;;;;;58.25;43.50;;;;;12.63;100.00;101104.81;4933570;28;49906;-68
2023/02/22 13:40:07;;;;;;;;;57.25;45.50;;;;;12.56;100.00;101106.47;4931446;28;49702;-68
2023/02/22 13:42:45;;;;;;;;;47.50;40.75;;;;;12.57;100.00;101110.00;4933378;28;50950;-68
2023/02/22 13:45:31;;;;;;;;;50.75;42.50;;;;;12.50;100.00;101108.97;4932997;28;49897;-68
2023/02/22 13:48:03;;;;;;;;;56.50;45.25;;;;;12.48;100.00;101105.44;4933315;28;49906;-67
2023/02/22 13:50:31;;;;;;;;;57.00;44.75;;;;;12.43;100.00;101099.19;4931939;28;49814;-68
2023/02/22 13:52:58;;;;;;;;;58.75;47.00;;;;;12.40;100.00;101103.53;4933421;28;49982;-69
2023/02/22 13:55:31;;;;;;;;;53.50;44.75;;;;;12.04;100.00;101044.94;4933313;28;49814;-68
2023/02/22 13:58:03;;;;;;;;;53.00;45.00;;;;;12.21;100.00;101084.75;4933424;28;49991;-69
2023/02/22 14:00:40;;;;;;;;;55.50;41.50;;;;;12.36;100.00;101096.44;4929471;28;49645;-68
2023/02/22 14:03:07;;;;;;;;;56.00;44.00;;;;;12.44;100.00;101093.06;4932873;28;50720;-68
2023/02/22 14:05:38;;;;;;;;;52.75;45.25;;;;;12.45;100.00;101088.69;4933112;28;50029;-68
2023/02/22 14:08:04;;;;;;;;;50.25;40.50;;;;;12.37;100.00;101066.63;4933029;28;49930;-68
2023/02/22 14:10:35;;;;;;;;;54.75;44.75;;;;;12.56;100.00;101095.94;4933058;28;49799;-68
2023/02/22 14:13:06;;;;;;;;;49.50;40.75;;;;;12.44;100.00;101084.28;4932663;28;49729;-68
2023/02/22 14:15:31;;;;;;;;;53.75;43.00;;;;;12.22;100.00;101043.50;4932977;28;49902;-68
2023/02/22 14:17:59;;;;;;;;;50.75;41.75;;;;;12.44;100.00;101087.78;4932579;28;49664;-69
2023/02/22 14:20:33;;;;;;;;;46.50;39.50;;;;;12.39;100.00;101070.16;4933371;28;49727;-68
2023/02/22 14:23:27;;;;;;;;;48.25;40.00;;;;;12.46;100.00;101091.38;4932554;28;49798;-68
2023/02/22 14:25:53;;;;;;;;;55.75;44.75;;;;;11.96;100.00;101019.31;4931798;28;49834;-69
2023/02/22 14:28:37;;;;;;;;;53.25;42.75;;;;;12.32;100.00;101082.31;4932778;28;49816;-69
2023/02/22 14:31:15;;;;;;;;;54.50;42.75;;;;;12.26;100.00;101087.47;4929212;28;49946;-71
2023/02/22 14:34:02;;;;;;;;;55.50;42.00;;;;;12.22;100.00;101104.94;4932390;28;49867;-70
2023/02/22 14:37:03;;;;;;;;;57.25;47.50;;;;;12.14;100.00;101095.09;4932931;28;49558;-71
2023/02/22 14:39:38;;;;;;;;;56.25;46.25;;;;;12.15;100.00;101104.78;4932564;28;49583;-68
2023/02/22 14:42:06;;;;;;;;;50.50;42.00;;;;;12.11;100.00;101101.22;4927295;28;49898;-70
2023/02/22 14:44:50;;;;;;;;;56.50;44.75;;;;;11.94;100.00;101076.28;4932467;28;50905;-69
2023/02/22 14:47:20;;;;;;;;;60.00;47.25;;;;;12.00;100.00;101089.59;4919094;28;49791;-71
2023/02/22 14:49:48;;;;;;;;;53.00;44.50;;;;;12.05;100.00;101095.81;4914253;28;49874;-69
2023/02/22 14:52:36;;;;;;;;;49.25;40.00;;;;;11.87;100.00;101069.13;4914372;28;50003;-68
2023/02/22 14:55:20;;;;;;;;;47.25;40.75;;;;;11.95;100.00;101088.59;4915635;28;50020;-73
2023/02/22 14:58:00;;;;;;;;;51.50;42.75;;;;;12.09;100.00;101104.69;4902177;28;49656;-67
2023/02/22 15:00:51;;;;;;;;;56.00;45.75;;;;;12.13;100.00;101098.59;4914164;28;49841;-69
2023/02/22 15:03:36;;;;;;;;;61.75;46.00;;;;;11.64;100.00;101016.03;4919819;28;49396;-69
2023/02/22 15:06:17;;;;;;;;;50.00;39.75;;;;;12.20;100.00;101100.50;4927498;28;50950;-68
2023/02/22 15:08:47;;;;;;;;;56.00;45.75;;;;;12.31;100.00;101097.22;4922426;28;49797;-69
2023/02/22 15:11:31;;;;;;;;;52.00;42.25;;;;;12.34;100.00;101091.13;4928506;28;49878;-70
2023/02/22 15:13:58;;;;;;;;;51.50;43.50;;;;;12.21;100.00;101076.84;4932324;28;49871;-69
2023/02/22 15:16:26;;;;;;;;;49.50;42.25;;;;;12.44;100.00;101094.81;4931746;28;49831;-70
2023/02/22 15:18:56;;;;;;;;;58.50;47.25;;;;;12.37;100.00;101080.66;4928524;28;50095;-66
2023/02/22 15:21:29;;;;;;;;;49.50;42.00;;;;;12.07;100.00;101024.81;4932218;28;49739;-68
2023/02/22 15:23:58;;;;;;;;;57.50;44.75;;;;;12.48;100.00;101096.66;4930852;28;49919;-66
2023/02/22 15:26:36;;;;;;;;;51.50;41.50;;;;;12.45;100.00;101097.50;4920976;28;51206;-66
2023/02/22 15:29:08;;;;;;;;;45.50;40.25;;;;;12.33;100.00;101073.53;4913816;28;49875;-67
2023/02/22 15:31:36;;;;;;;;;57.25;46.50;;;;;12.10;100.00;101046.81;4927583;28;49726;-66
2023/02/22 15:34:17;;;;;;;;;50.25;41.25;;;;;12.27;100.00;101089.25;4926108;28;49739;-67
2023/02/22 15:36:45;;;;;;;;;40.25;37.00;;;;;12.08;100.00;101071.31;4935114;28;49767;-67
2023/02/22 15:39:19;;;;;;;;;45.50;36.75;;;;;12.13;100.00;101088.06;4934117;28;49652;-66
2023/02/22 15:41:44;;;;;;;;;45.00;39.00;;;;;12.11;100.00;101081.91;4928660;28;49738;-68
2023/02/22 15:44:12;;;;;;;;;44.75;39.75;;;;;12.07;100.00;101069.56;4923288;28;49857;-68
2023/02/22 15:46:38;;;;;;;;;41.25;35.25;;;;;12.10;100.00;101064.34;4931117;28;50810;-66
2023/02/22 15:49:27;;;;;;;;;39.00;34.25;;;;;12.21;100.00;101086.47;4932976;28;49524;-72
2023/02/22 15:52:18;;;;;;;;;44.50;37.50;;;;;12.28;100.00;101096.28;4919426;28;49998;-69
2023/02/22 15:54:48;;;;;;;;;42.00;34.50;;;;;12.16;100.00;101064.44;4913307;28;50038;-69
2023/02/22 15:57:20;;;;;;;;;42.25;36.75;;;;;12.21;100.00;101079.47;4912911;28;49896;-71
2023/02/22 15:59:51;;;;;;;;;29.00;27.25;;;;;12.30;100.00;101089.28;4913263;28;49731;-70
2023/02/22 16:02:32;;;;;;;;;25.75;25.75;;;;;12.03;100.00;101040.53;4913571;28;50159;-70
2023/02/22 16:05:10;;;;;;;;;31.50;29.75;;;;;12.16;100.00;101064.44;4913307;28;49639;-70
2023/02/22 16:07:45;;;;;;;;;32.00;32.00;;;;;12.21;100.00;101074.22;4918250;28;50022;-76
2023/02/22 16:10:25;;;;;;;;;39.00;29.75;;;;;11.89;100.00;101022.72;4906554;28;50058;-73
2023/02/22 16:13:18;;;;;;;;;36.25;35.00;;;;;12.16;100.00;101089.03;4914966;28;49689;-70
2023/02/22 16:15:53;;;;;;;;;37.25;31.00;;;;;11.90;100.00;101041.16;4914354;28;49631;-69
2023/02/22 16:18:27;;;;;;;;;33.00;32.50;;;;;12.16;100.00;101082.88;4914972;28;50959;-70
2023/02/22 16:21:01;;;;;;;;;31.50;29.25;;;;;12.01;100.00;101060.66;4918639;28;49730;-69
2023/02/22 16:23:27;;;;;;;;;35.50;29.25;;;;;12.20;100.00;101089.97;4923531;28;50306;-70
2023/02/22 16:26:05;;;;;;;;;34.00;30.00;;;;;12.08;100.00;101073.97;4900369;28;49697;-68
2023/02/22 16:28:34;;;;;;;;;33.25;31.00;;;;;12.05;100.00;101061.59;4916525;28;49727;-69
2023/02/22 16:31:00;;;;;;;;;33.00;31.00;;;;;12.21;100.00;101081.22;4897256;28;49866;-70
2023/02/22 16:33:32;;;;;;;;;36.00;33.00;;;;;12.04;100.00;101057.19;4899432;28;49736;-69
2023/02/22 16:36:01;;;;;;;;;36.75;31.50;;;;;12.03;100.00;101058.06;4935037;28;49679;-70
2023/02/22 16:38:32;;;;;;;;;31.25;28.75;;;;;12.17;100.00;101085.56;4929787;28;49824;-73
2023/02/22 16:40:58;;;;;;;;;36.50;34.00;;;;;11.83;100.00;101036.63;4926350;28;49870;-72
2023/02/22 16:43:28;;;;;;;;;36.75;33.75;;;;;11.99;100.00;101085.19;4926844;28;50257;-71
2023/02/22 16:45:53;;;;;;;;;39.50;32.00;;;;;11.74;100.00;101042.53;4927171;28;49693;-72
2023/02/22 16:48:21;;;;;;;;;35.25;30.75;;;;;12.02;100.00;101094.00;4910361;28;49931;-74
2023/02/22 16:50:48;;;;;;;;;28.25;28.00;;;;;11.86;100.00;101076.13;4915248;28;49946;-70
2023/02/22 16:53:18;;;;;;;;;31.75;27.25;;;;;11.86;100.00;101085.78;4925570;28;49806;-74
2023/02/22 16:55:45;;;;;;;;;32.25;30.75;;;;;11.89;100.00;101081.47;4934785;28;49893;-69
2023/02/22 16:58:13;;;;;;;;;39.50;33.50;;;;;11.89;100.00;101080.59;4931540;28;50815;-76
2023/02/22 17:00:41;;;;;;;;;34.00;32.75;;;;;11.97;100.00;101100.06;4933920;28;49834;-70
2023/02/22 17:03:13;;;;;;;;;32.50;29.25;;;;;11.94;100.00;101100.84;4924184;28;49798;-75
2023/02/22 17:05:38;;;;;;;;;31.50;28.75;;;;;11.58;100.00;101044.81;4930053;28;50045;-72
2023/02/22 17:08:04;;;;;;;;;28.25;26.25;;;;;11.75;100.00;101067.09;4911646;28;50567;-74
2023/02/22 17:10:29;;;;;;;;;35.00;33.25;;;;;11.79;100.00;101083.84;4924176;28;49773;-77
2023/02/22 17:12:56;;;;;;;;;40.00;36.50;;;;;11.71;100.00;101081.06;4934684;28;49668;-74
2023/02/22 17:15:28;;;;;;;;;38.25;34.25;;;;;11.81;100.00;101111.09;4932934;28;50169;-70
2023/02/22 17:17:55;;;;;;;;;35.25;32.75;;;;;11.73;100.00;101092.50;4933428;28;49817;-70
2023/02/22 17:20:30;;;;;;;;;35.50;33.25;;;;;11.17;100.00;101011.53;4909777;28;50053;-75
2023/02/22 17:23:04;;;;;;;;;38.25;31.25;;;;;11.59;100.00;101084.31;4913715;28;50033;-69
2023/02/22 17:25:37;;;;;;;;;37.75;35.00;;;;;11.70;100.00;101105.59;4913837;28;49695;-76
2023/02/22 17:28:03;;;;;;;;;38.75;35.75;;;;;11.51;100.00;101088.53;4926307;28;49875;-69
2023/02/22 17:30:31;;;;;;;;;33.25;32.00;;;;;11.34;100.00;101042.56;4916565;28;49782;-72
2023/02/22 17:33:02;;;;;;;;;32.50;32.25;;;;;11.55;100.00;101084.19;4935714;28;49899;-70
2023/02/22 17:35:29;;;;;;;;;35.75;32.75;;;;;11.65;100.00;101112.47;4935206;28;49700;-70